Time;durP1;ratioP1;P1;durP2;ratioP2;P2;SDS_P1;SDS_P2;PMS_P1;PMS_P2;Temp;Humidity;BMP_temperature;BMP_pressure;BME280_temperature;BME280_humidity;BME280_pressure;Samples;Min_cycle;Max_cycle;Signal;HPM_P1;HPM_P2
2023/05/30 00:01:23;;;;;;;10.37;2.10;;;;;;;15.34;48.69;100427.22;4205480;28;20228;-66
2023/05/30 00:03:50;;;;;;;9.07;1.90;;;;;;;15.41;47.95;100430.09;4209804;28;22171;-68
2023/05/30 00:06:17;;;;;;;8.57;2.13;;;;;;;15.34;48.03;100422.63;4216192;28;20225;-68
2023/05/30 00:08:44;;;;;;;6.50;1.73;;;;;;;15.27;48.13;100423.53;4204275;28;21785;-67
2023/05/30 00:11:14;;;;;;;8.37;1.63;;;;;;;15.27;48.13;100421.63;4201922;28;20257;-67
2023/05/30 00:13:43;;;;;;;9.10;1.70;;;;;;;15.20;47.98;100424.25;4216031;28;20233;-68
2023/05/30 00:16:12;;;;;;;9.40;2.00;;;;;;;15.23;47.54;100424.88;4212114;28;20319;-66
2023/05/30 00:18:39;;;;;;;9.87;1.97;;;;;;;15.23;47.77;100424.88;4190239;28;20231;-67
2023/05/30 00:21:08;;;;;;;10.53;1.70;;;;;;;15.19;47.95;100422.53;4201904;28;22066;-67
2023/05/30 00:23:35;;;;;;;5.73;1.53;;;;;;;15.17;48.15;100431.94;4215117;28;20252;-66
2023/05/30 00:26:03;;;;;;;6.57;1.70;;;;;;;15.08;48.03;100428.38;4212667;28;20236;-66
2023/05/30 00:28:30;;;;;;;8.77;2.10;;;;;;;15.00;48.44;100429.28;4204250;28;20532;-66
2023/05/30 00:30:56;;;;;;;9.47;1.90;;;;;;;15.05;48.23;100426.00;4214158;28;20277;-67
2023/05/30 00:33:23;;;;;;;9.33;1.80;;;;;;;14.97;48.46;100439.69;4213069;28;20227;-66
2023/05/30 00:35:50;;;;;;;8.47;1.90;;;;;;;14.87;48.99;100432.56;4210414;28;22058;-67
2023/05/30 00:38:17;;;;;;;7.30;1.90;;;;;;;14.90;48.51;100431.34;4198047;28;20236;-68
2023/05/30 00:40:44;;;;;;;11.43;1.90;;;;;;;14.84;48.57;100429.31;4210629;28;20467;-67
2023/05/30 00:43:10;;;;;;;6.10;1.90;;;;;;;14.82;48.64;100426.78;4210247;28;20287;-66
2023/05/30 00:45:37;;;;;;;8.93;2.10;;;;;;;14.78;49.10;100421.84;4200109;28;20243;-67
2023/05/30 00:48:04;;;;;;;12.90;2.00;;;;;;;14.76;48.86;100416.59;4205040;28;20232;-68
2023/05/30 00:50:32;;;;;;;8.30;2.03;;;;;;;14.64;49.46;100420.66;4213480;28;20247;-68
2023/05/30 00:52:59;;;;;;;13.47;2.10;;;;;;;14.60;49.81;100427.50;4205311;28;20359;-68
2023/05/30 00:55:27;;;;;;;9.80;2.07;;;;;;;14.64;49.43;100420.66;4217741;28;20236;-69
2023/05/30 00:57:54;;;;;;;8.37;1.93;;;;;;;14.70;49.01;100425.44;4212455;28;20234;-68
2023/05/30 01:00:24;;;;;;;8.13;1.93;;;;;;;14.59;49.53;100423.91;4217923;28;20481;-67
2023/05/30 01:02:51;;;;;;;9.93;2.03;;;;;;;14.61;49.14;100419.16;4234718;28;20275;-66
2023/05/30 01:05:19;;;;;;;8.03;1.70;;;;;;;14.62;48.31;100426.31;4212984;28;20237;-69
2023/05/30 01:07:45;;;;;;;9.73;2.00;;;;;;;14.63;48.49;100441.63;4211579;28;20327;-66
2023/05/30 01:10:15;;;;;;;6.47;1.90;;;;;;;14.52;48.30;100428.34;4222928;28;20244;-66
2023/05/30 01:12:47;;;;;;;9.17;1.90;;;;;;;14.46;48.63;100426.34;4244695;28;20234;-65
2023/05/30 01:15:18;;;;;;;11.03;2.20;;;;;;;14.47;48.92;100437.03;4224204;28;20288;-66
2023/05/30 01:17:57;;;;;;;8.87;2.20;;;;;;;14.57;49.45;100429.53;4221195;28;20235;-66
2023/05/30 01:20:25;;;;;;;12.40;2.10;;;;;;;14.52;50.44;100437.41;4227965;28;21813;-67
2023/05/30 01:23:08;;;;;;;7.43;1.97;;;;;;;14.52;50.81;100434.66;4238013;28;21944;-67
2023/05/30 01:25:35;;;;;;;6.90;1.60;;;;;;;14.45;51.10;100432.78;4201324;28;21141;-67
2023/05/30 01:28:15;;;;;;;6.43;1.83;;;;;;;14.36;51.64;100446.44;4205987;28;20238;-65
2023/05/30 01:30:46;;;;;;;6.53;2.00;;;;;;;14.31;51.83;100443.38;4210414;28;20490;-66
2023/05/30 01:33:13;;;;;;;9.40;1.90;;;;;;;14.26;51.90;100451.22;4211128;28;20234;-66
2023/05/30 01:35:44;;;;;;;6.17;1.87;;;;;;;14.20;52.24;100450.03;4213170;28;20224;-67
2023/05/30 01:38:11;;;;;;;11.07;1.83;;;;;;;14.24;52.76;100462.25;4223355;28;22541;-66
2023/05/30 01:40:38;;;;;;;11.07;2.30;;;;;;;14.30;53.20;100455.28;4225815;28;20232;-67
2023/05/30 01:43:15;;;;;;;8.10;2.20;;;;;;;14.00;54.61;100465.84;4221466;28;20230;-66
2023/05/30 01:45:48;;;;;;;8.47;1.80;;;;;;;13.95;54.98;100460.91;4224065;28;20822;-67
2023/05/30 01:48:33;;;;;;;7.13;2.00;;;;;;;13.90;55.20;100462.41;4218801;28;26375;-66
2023/05/30 01:51:00;;;;;;;6.83;2.17;;;;;;;13.83;55.10;100464.97;4243426;28;20235;-65
2023/05/30 01:53:37;;;;;;;6.83;2.10;;;;;;;14.00;55.07;100463.13;4213958;28;20265;-67
2023/05/30 01:56:05;;;;;;;9.07;2.10;;;;;;;13.79;55.20;100464.47;4218900;28;21523;-68
2023/05/30 01:58:32;;;;;;;10.23;2.17;;;;;;;13.63;55.61;100468.00;4207833;28;20281;-66
2023/05/30 02:00:59;;;;;;;9.53;2.40;;;;;;;13.45;55.97;100464.56;4224226;28;20251;-66
2023/05/30 02:03:28;;;;;;;10.63;2.20;;;;;;;13.31;56.38;100466.00;4233675;28;20292;-65
2023/05/30 02:05:55;;;;;;;7.90;2.10;;;;;;;13.34;56.04;100464.81;4223114;28;20310;-66
2023/05/30 02:08:22;;;;;;;10.23;2.07;;;;;;;13.26;56.60;100469.22;4220062;28;20662;-66
2023/05/30 02:10:48;;;;;;;6.63;2.23;;;;;;;13.23;56.68;100469.56;4232808;28;20284;-67
2023/05/30 02:13:15;;;;;;;7.23;2.33;;;;;;;13.39;56.05;100473.38;4220688;28;20236;-66
2023/05/30 02:15:41;;;;;;;7.63;2.20;;;;;;;13.17;56.34;100459.34;4231734;28;21811;-67
2023/05/30 02:18:08;;;;;;;11.70;2.37;;;;;;;13.15;56.34;100472.25;4218717;28;21186;-68
2023/05/30 02:20:36;;;;;;;12.63;2.77;;;;;;;12.99;57.13;100479.31;4224860;28;22483;-66
2023/05/30 02:23:02;;;;;;;8.63;2.10;;;;;;;13.03;56.82;100474.41;4224633;28;20236;-67
2023/05/30 02:25:29;;;;;;;6.83;1.90;;;;;;;13.06;56.02;100463.22;4211931;28;20304;-67
2023/05/30 02:27:55;;;;;;;4.43;2.10;;;;;;;13.15;55.88;100470.38;4220834;28;20670;-67
2023/05/30 02:30:22;;;;;;;6.07;2.07;;;;;;;13.03;56.35;100476.28;4243317;28;20288;-66
2023/05/30 02:32:48;;;;;;;5.97;1.47;;;;;;;13.03;55.85;100477.13;4213865;28;21840;-67
2023/05/30 02:35:15;;;;;;;6.40;2.07;;;;;;;12.91;56.25;100475.72;4233009;28;21386;-67
2023/05/30 02:37:41;;;;;;;10.13;2.20;;;;;;;12.86;56.32;100475.31;4237659;28;20589;-67
2023/05/30 02:40:09;;;;;;;8.87;2.27;;;;;;;12.89;55.83;100483.16;4212088;28;21049;-68
2023/05/30 02:42:36;;;;;;;5.53;1.97;;;;;;;12.88;55.56;100482.28;4223929;28;20290;-66
2023/05/30 02:45:03;;;;;;;9.00;1.80;;;;;;;12.84;55.74;100487.19;4231624;28;20312;-66
2023/05/30 02:47:30;;;;;;;8.17;1.97;;;;;;;12.82;55.82;100482.94;4237517;28;20229;-66
2023/05/30 02:49:57;;;;;;;9.93;1.90;;;;;;;12.79;55.62;100489.56;4244281;28;21126;-66
2023/05/30 02:52:23;;;;;;;5.57;2.10;;;;;;;12.76;55.18;100483.59;4247508;28;20252;-67
2023/05/30 02:54:50;;;;;;;5.50;1.43;;;;;;;12.71;55.03;100480.50;4247469;28;20234;-67
2023/05/30 02:57:16;;;;;;;8.20;2.20;;;;;;;12.70;54.64;100486.94;4249632;28;20239;-68
2023/05/30 02:59:44;;;;;;;7.27;1.90;;;;;;;12.63;55.18;100486.72;4256991;28;20238;-67
2023/05/30 03:02:11;;;;;;;6.87;1.63;;;;;;;12.65;54.64;100484.72;4256231;28;20245;-67
2023/05/30 03:04:38;;;;;;;7.17;1.83;;;;;;;12.62;54.91;100491.31;4255600;28;20240;-68
2023/05/30 03:07:07;;;;;;;6.27;1.80;;;;;;;12.54;55.33;100493.97;4256016;28;20318;-66
2023/05/30 03:09:35;;;;;;;7.27;2.00;;;;;;;12.61;55.24;100497.75;4271619;28;20239;-66
2023/05/30 03:12:01;;;;;;;8.27;1.80;;;;;;;12.56;55.51;100491.97;4248321;28;20322;-66
2023/05/30 03:14:28;;;;;;;7.13;1.70;;;;;;;12.62;55.45;100485.88;4246873;28;20273;-68
2023/05/30 03:16:54;;;;;;;8.23;2.00;;;;;;;12.54;55.92;100495.84;4234539;28;21459;-67
2023/05/30 03:19:21;;;;;;;7.13;1.73;;;;;;;12.54;55.99;100493.13;4265810;28;20234;-67
2023/05/30 03:21:49;;;;;;;6.27;1.70;;;;;;;12.56;56.23;100494.69;4213408;28;20236;-69
2023/05/30 03:24:16;;;;;;;5.77;1.80;;;;;;;12.63;56.14;100489.44;4231881;28;20240;-66
2023/05/30 03:26:42;;;;;;;7.73;1.77;;;;;;;12.62;56.35;100494.03;4228259;28;21719;-67
2023/05/30 03:29:09;;;;;;;5.03;1.43;;;;;;;12.62;56.57;100496.75;4232915;28;21137;-66
2023/05/30 03:31:36;;;;;;;10.33;2.20;;;;;;;12.66;56.57;100498.13;4227946;28;21161;-66
2023/05/30 03:34:04;;;;;;;9.00;2.30;;;;;;;12.76;56.29;100500.75;4213089;28;20229;-67
2023/05/30 03:36:30;;;;;;;10.83;2.20;;;;;;;12.73;56.46;100497.47;4216783;28;22059;-67
2023/05/30 03:38:57;;;;;;;5.07;1.90;;;;;;;12.64;57.45;100499.28;4225229;28;20233;-66
2023/05/30 03:41:23;;;;;;;6.07;2.30;;;;;;;12.76;57.15;100505.31;4218049;28;20289;-67
2023/05/30 03:43:50;;;;;;;7.83;1.77;;;;;;;12.79;57.46;100500.41;4228924;28;21145;-66
2023/05/30 03:46:19;;;;;;;6.73;2.03;;;;;;;12.74;57.62;100508.19;4221802;28;20292;-67
2023/05/30 03:48:46;;;;;;;10.27;2.40;;;;;;;12.91;57.26;100516.47;4222429;28;20247;-67
2023/05/30 03:51:12;;;;;;;7.20;1.80;;;;;;;13.05;56.66;100513.13;4215088;28;20240;-67
2023/05/30 03:53:41;;;;;;;10.80;2.13;;;;;;;13.01;57.19;100514.47;4212002;28;20234;-66
2023/05/30 03:56:08;;;;;;;10.83;2.30;;;;;;;12.94;57.60;100511.56;4242182;28;20234;-66
2023/05/30 03:58:34;;;;;;;9.10;2.07;;;;;;;13.08;57.13;100511.97;4255917;28;20232;-67
2023/05/30 04:01:01;;;;;;;7.23;2.47;;;;;;;13.10;57.64;100512.66;4206126;28;20229;-66
2023/05/30 04:03:28;;;;;;;9.23;2.57;;;;;;;13.10;57.63;100521.66;4239184;28;20226;-64
2023/05/30 04:05:58;;;;;;;9.23;2.00;;;;;;;13.11;57.67;100520.63;4213706;28;20232;-67
2023/05/30 04:08:27;;;;;;;5.80;1.90;;;;;;;13.19;57.69;100525.25;4243644;28;20243;-67
2023/05/30 04:10:54;;;;;;;11.90;2.50;;;;;;;13.04;58.46;100532.31;4223915;28;20238;-66
2023/05/30 04:13:21;;;;;;;11.60;2.47;;;;;;;13.08;58.53;100529.09;4222172;28;20237;-68
2023/05/30 04:15:48;;;;;;;6.60;2.00;;;;;;;13.16;58.18;100537.31;4220649;28;20438;-68
2023/05/30 04:18:14;;;;;;;7.40;1.90;;;;;;;13.32;58.25;100543.84;4222282;28;22941;-66
2023/05/30 04:20:41;;;;;;;7.73;2.00;;;;;;;13.39;58.24;100546.81;4217405;28;20436;-67
2023/05/30 04:23:08;;;;;;;7.17;2.33;;;;;;;13.46;57.82;100548.69;4213976;28;20317;-67
2023/05/30 04:25:35;;;;;;;11.73;2.63;;;;;;;13.44;58.29;100550.72;4211846;28;20269;-66
2023/05/30 04:28:04;;;;;;;7.80;2.20;;;;;;;13.59;57.39;100552.84;4221229;28;21613;-68
2023/05/30 04:30:33;;;;;;;10.77;2.73;;;;;;;13.57;57.48;100552.13;4218942;28;20236;-66
2023/05/30 04:32:59;;;;;;;6.27;1.87;;;;;;;13.42;58.40;100554.63;4210160;28;20625;-67
2023/05/30 04:35:26;;;;;;;8.00;2.30;;;;;;;13.54;57.93;100555.19;4232300;28;20244;-67
2023/05/30 04:37:58;;;;;;;10.90;2.40;;;;;;;13.65;57.50;100554.03;4218936;28;20232;-66
2023/05/30 04:40:26;;;;;;;10.33;2.60;;;;;;;13.71;57.57;100556.09;4229563;28;20236;-66
2023/05/30 04:42:53;;;;;;;9.77;2.70;;;;;;;13.78;57.60;100558.00;4215394;28;20376;-66
2023/05/30 04:45:26;;;;;;;9.77;2.40;;;;;;;13.87;57.65;100558.00;4226927;28;20242;-67
2023/05/30 04:47:53;;;;;;;9.83;2.43;;;;;;;13.78;57.42;100558.00;4205100;28;20342;-69
2023/05/30 04:50:24;;;;;;;8.33;2.63;;;;;;;13.97;57.15;100564.16;4217340;28;23491;-66
2023/05/30 04:52:50;;;;;;;13.67;2.70;;;;;;;14.00;56.64;100563.81;4223744;28;20240;-66
2023/05/30 04:55:18;;;;;;;6.53;2.27;;;;;;;13.99;57.05;100556.66;4228191;28;20237;-67
2023/05/30 04:57:44;;;;;;;9.63;2.27;;;;;;;13.90;57.53;100563.09;4231592;28;20367;-68
2023/05/30 05:00:13;;;;;;;7.77;2.10;;;;;;;14.06;57.36;100565.03;4211624;28;20232;-66
2023/05/30 05:02:41;;;;;;;6.63;2.23;;;;;;;14.15;57.15;100571.34;4231308;28;20560;-66
2023/05/30 05:05:08;;;;;;;10.03;2.33;;;;;;;14.30;56.67;100561.47;4245676;28;20821;-67
2023/05/30 05:07:35;;;;;;;10.00;2.50;;;;;;;14.29;56.34;100572.56;4247461;28;20235;-67
2023/05/30 05:10:08;;;;;;;8.67;2.53;;;;;;;14.33;56.21;100576.63;4225574;28;20223;-67
2023/05/30 05:12:35;;;;;;;7.70;2.30;;;;;;;14.46;56.52;100559.78;4214053;28;20262;-66
2023/05/30 05:15:01;;;;;;;7.93;2.00;;;;;;;14.62;55.54;100570.69;4230743;28;20250;-65
2023/05/30 05:17:28;;;;;;;14.30;2.33;;;;;;;14.63;55.51;100569.69;4229774;28;20267;-66
2023/05/30 05:19:55;;;;;;;8.80;2.40;;;;;;;14.61;55.83;100573.59;4225535;28;20228;-67
2023/05/30 05:22:22;;;;;;;12.07;2.30;;;;;;;14.89;55.13;100572.25;4235136;28;21083;-68
2023/05/30 05:24:48;;;;;;;10.97;2.43;;;;;;;15.24;54.05;100584.75;4225223;28;20303;-65
2023/05/30 05:27:15;;;;;;;11.37;2.30;;;;;;;15.58;53.20;100583.66;4227435;28;20347;-70
2023/05/30 05:29:42;;;;;;;7.57;2.43;;;;;;;16.07;52.31;100586.16;4234432;28;20239;-66
2023/05/30 05:32:09;;;;;;;10.97;2.67;;;;;;;16.41;49.97;100584.91;4222056;28;20236;-66
2023/05/30 05:34:35;;;;;;;7.53;2.20;;;;;;;16.56;49.56;100582.22;4229412;28;20240;-71
2023/05/30 05:37:02;;;;;;;9.33;2.67;;;;;;;17.01;49.14;100590.56;4215684;28;23254;-68
2023/05/30 05:39:29;;;;;;;8.57;2.40;;;;;;;17.58;47.97;100590.97;4238509;28;20385;-67
2023/05/30 05:41:55;;;;;;;10.93;2.47;;;;;;;18.12;45.77;100597.13;4241347;28;22718;-70
2023/05/30 05:44:22;;;;;;;6.80;2.03;;;;;;;18.62;45.04;100591.75;4219088;28;20245;-65
2023/05/30 05:46:50;;;;;;;7.77;2.13;;;;;;;19.14;44.65;100597.91;4207274;28;20665;-67
2023/05/30 05:49:16;;;;;;;15.33;2.60;;;;;;;20.15;42.05;100596.53;4232598;28;22269;-69
2023/05/30 05:51:43;;;;;;;13.53;3.10;;;;;;;20.72;40.88;100598.97;4230533;28;20239;-66
2023/05/30 05:54:09;;;;;;;11.33;2.13;;;;;;;20.03;42.00;100600.94;4230275;28;21763;-66
2023/05/30 05:59:20;;;;;;;14.30;2.40;;;;;;;21.87;38.86;100602.41;4285207;27;21341;-67
2023/05/30 06:01:46;;;;;;;11.63;2.53;;;;;;;21.84;38.83;100598.19;4253816;28;20229;-66
2023/05/30 06:04:13;;;;;;;8.00;2.03;;;;;;;22.60;36.35;100601.19;4279555;28;21720;-66
2023/05/30 06:06:40;;;;;;;12.33;2.57;;;;;;;22.26;37.63;100611.56;4285464;28;20239;-73
2023/05/30 06:09:07;;;;;;;7.47;2.27;;;;;;;22.10;36.85;100611.00;4280086;28;20288;-69
2023/05/30 06:11:33;;;;;;;10.77;2.37;;;;;;;21.81;37.13;100618.75;4262219;28;20880;-66
2023/05/30 06:14:00;;;;;;;11.57;2.10;;;;;;;21.67;37.66;100617.13;4286128;28;20404;-66
2023/05/30 06:16:27;;;;;;;12.67;2.50;;;;;;;23.03;36.25;100599.59;4244810;28;20236;-67
2023/05/30 06:18:53;;;;;;;9.83;2.63;;;;;;;24.31;34.75;100608.13;4256255;28;21972;-68
2023/05/30 06:21:20;;;;;;;9.73;2.87;;;;;;;24.44;33.18;100614.53;4289577;28;21808;-69
2023/05/30 06:23:47;;;;;;;12.07;2.93;;;;;;;23.58;34.62;100615.41;4263630;28;20682;-68
2023/05/30 06:26:13;;;;;;;13.10;2.30;;;;;;;24.28;33.96;100607.75;4251877;28;20242;-66
2023/05/30 06:28:40;;;;;;;8.97;2.47;;;;;;;26.30;31.46;100613.34;4260368;28;20625;-67
2023/05/30 06:31:07;;;;;;;10.23;2.33;;;;;;;25.02;32.12;100613.00;4264499;28;20240;-66
2023/05/30 06:33:33;;;;;;;12.88;2.33;;;;;;;24.76;32.01;100625.38;4261895;28;22028;-68
2023/05/30 06:36:00;;;;;;;11.40;2.20;;;;;;;26.47;30.12;100632.81;4252853;28;20625;-67
2023/05/30 06:38:27;;;;;;;8.70;1.93;;;;;;;27.19;28.41;100629.34;4255599;28;20227;-67
2023/05/30 06:40:53;;;;;;;9.47;2.10;;;;;;;27.47;27.90;100618.41;4252741;28;20243;-66
2023/05/30 06:43:20;;;;;;;15.45;2.72;;;;;;;26.96;28.53;100630.38;4263812;28;21786;-66
2023/05/30 06:45:47;;;;;;;5.32;1.85;;;;;;;28.19;26.03;100629.63;4242903;28;22428;-69
2023/05/30 06:48:13;;;;;;;8.97;2.10;;;;;;;27.64;24.80;100635.03;4281702;28;20223;-68
2023/05/30 06:50:40;;;;;;;9.63;1.83;;;;;;;26.13;27.43;100635.50;4254030;28;20235;-67
2023/05/30 06:53:07;;;;;;;13.02;1.83;;;;;;;26.02;28.42;100632.47;4259585;28;20234;-66
2023/05/30 06:55:34;;;;;;;7.95;1.65;;;;;;;26.04;28.80;100624.75;4258808;28;20339;-67
2023/05/30 06:58:04;;;;;;;7.80;2.23;;;;;;;27.78;26.72;100622.44;4260899;28;20230;-65
2023/05/30 07:00:31;;;;;;;5.50;1.88;;;;;;;28.44;25.92;100629.06;4256472;28;20304;-74
2023/05/30 07:03:00;;;;;;;9.53;2.10;;;;;;;28.73;25.36;100624.09;4240275;28;20242;-66
2023/05/30 07:05:27;;;;;;;11.85;2.50;;;;;;;27.35;26.08;100624.03;4245570;28;21679;-68
2023/05/30 07:07:53;;;;;;;5.63;1.48;;;;;;;26.08;26.22;100623.19;4242463;28;21542;-69
2023/05/30 07:10:20;;;;;;;10.13;1.80;;;;;;;24.94;27.85;100628.06;4260118;28;20306;-68
2023/05/30 07:12:46;;;;;;;6.63;1.83;;;;;;;25.44;27.59;100623.16;4237094;28;20231;-69
2023/05/30 07:15:13;;;;;;;7.27;1.83;;;;;;;24.72;28.88;100629.72;4259239;28;20741;-69
2023/05/30 07:17:40;;;;;;;11.00;2.17;;;;;;;25.90;27.87;100634.44;4248113;28;20682;-68
2023/05/30 07:20:07;;;;;;;7.83;1.67;;;;;;;25.41;27.78;100630.03;4241215;28;20235;-68
2023/05/30 07:22:33;;;;;;;6.30;2.10;;;;;;;26.09;27.51;100633.19;4238315;28;20359;-69
2023/05/30 07:25:00;;;;;;;7.37;2.10;;;;;;;25.02;28.74;100628.81;4232413;28;21731;-64
2023/05/30 07:27:27;;;;;;;9.73;2.13;;;;;;;24.14;30.65;100623.69;4237423;28;20239;-64
2023/05/30 07:29:53;;;;;;;8.87;2.07;;;;;;;22.92;32.97;100631.53;4243816;28;20275;-66
2023/05/30 07:32:21;;;;;;;8.00;2.23;;;;;;;22.79;32.63;100635.22;4243359;28;21149;-65
2023/05/30 07:34:48;;;;;;;8.73;2.20;;;;;;;23.07;32.48;100633.94;4230205;28;20239;-69
2023/05/30 07:37:14;;;;;;;9.70;2.10;;;;;;;23.63;31.97;100621.09;4230561;28;20240;-65
2023/05/30 07:39:41;;;;;;;7.17;2.17;;;;;;;24.56;30.36;100636.72;4229102;28;20305;-65
2023/05/30 07:42:08;;;;;;;6.60;1.90;;;;;;;23.45;32.10;100624.69;4250300;28;20240;-65
2023/05/30 07:44:34;;;;;;;3.47;1.57;;;;;;;22.62;32.14;100638.53;4230551;28;20273;-65
2023/05/30 07:47:02;;;;;;;6.33;1.70;;;;;;;22.86;32.05;100637.91;4247504;28;20231;-65
2023/05/30 07:49:29;;;;;;;5.60;1.70;;;;;;;23.08;30.77;100647.50;4240418;28;20232;-64
2023/05/30 07:51:56;;;;;;;7.10;2.00;;;;;;;22.95;29.80;100636.59;4239526;28;20239;-65
2023/05/30 07:54:22;;;;;;;6.63;1.80;;;;;;;21.84;32.05;100634.88;4243870;28;20489;-69
2023/05/30 07:56:50;;;;;;;8.40;1.47;;;;;;;21.13;33.61;100633.69;4232686;28;20341;-68
2023/05/30 07:59:17;;;;;;;4.83;1.60;;;;;;;21.46;33.82;100642.97;4233275;28;20243;-68
2023/05/30 08:01:45;;;;;;;7.70;2.10;;;;;;;21.32;34.00;100632.00;4256841;28;22205;-66
2023/05/30 08:04:12;;;;;;;10.03;1.60;;;;;;;22.28;32.95;100640.59;4240549;28;20241;-65
2023/05/30 08:06:38;;;;;;;8.00;1.90;;;;;;;22.42;31.86;100643.34;4245316;28;20234;-62
2023/05/30 08:09:05;;;;;;;9.07;1.97;;;;;;;22.01;32.45;100648.16;4267404;28;20240;-66
2023/05/30 08:11:31;;;;;;;6.63;1.60;;;;;;;22.39;32.49;100641.00;4251678;28;20315;-65
2023/05/30 08:13:58;;;;;;;4.87;1.50;;;;;;;22.79;31.63;100646.28;4239527;28;21209;-68
2023/05/30 08:16:26;;;;;;;9.97;1.63;;;;;;;22.76;31.39;100638.44;4287199;28;21610;-67
2023/05/30 08:18:53;;;;;;;11.50;1.70;;;;;;;22.60;29.90;100646.19;4248689;28;20318;-64
2023/05/30 08:21:19;;;;;;;6.70;1.80;;;;;;;23.03;30.61;100647.34;4237122;28;20540;-66
2023/05/30 08:23:46;;;;;;;10.27;1.93;;;;;;;22.69;30.57;100646.78;4245822;28;20587;-69
2023/05/30 08:26:13;;;;;;;7.47;2.00;;;;;;;22.67;30.52;100650.81;4262363;28;21053;-67
2023/05/30 08:31:25;;;;;;;11.37;1.87;;;;;;;21.42;33.11;100652.75;4294340;28;22536;-65
2023/05/30 08:33:52;;;;;;;6.10;1.97;;;;;;;22.40;31.48;100662.84;4245536;28;20245;-68
2023/05/30 08:36:21;;;;;;;7.73;1.97;;;;;;;22.39;31.39;100649.28;4260393;27;20239;-66
2023/05/30 08:38:53;;;;;;;7.23;1.43;;;;;;;21.96;31.45;100658.97;4265024;28;20306;-66
2023/05/30 08:41:40;;;;;;;8.57;2.10;;;;;;;22.03;31.53;100636.91;4292922;28;20446;-68
2023/05/30 08:44:06;;;;;;;5.67;1.60;;;;;;;21.03;32.94;100642.38;4265514;28;21612;-67
2023/05/30 08:46:33;;;;;;;12.23;2.17;;;;;;;20.86;33.88;100652.97;4267144;28;21568;-68
2023/05/30 08:49:01;;;;;;;9.00;1.83;;;;;;;20.35;34.88;100647.97;4261663;28;20354;-68
2023/05/30 08:51:29;;;;;;;5.77;1.73;;;;;;;20.90;34.26;100653.41;4260219;28;20307;-68
2023/05/30 08:53:57;;;;;;;8.20;2.00;;;;;;;21.60;32.74;100650.19;4272577;28;20294;-67
2023/05/30 08:56:28;;;;;;;5.70;1.60;;;;;;;21.60;33.03;100661.19;4276046;28;20680;-67
2023/05/30 08:58:57;;;;;;;9.57;2.00;;;;;;;21.42;33.76;100661.00;4275302;28;22328;-66
2023/05/30 09:01:24;;;;;;;7.13;1.63;;;;;;;21.34;33.99;100657.41;4280482;28;21347;-67
2023/05/30 09:03:51;;;;;;;8.00;1.93;;;;;;;21.56;32.77;100665.44;4261987;28;21484;-67
2023/05/30 09:06:18;;;;;;;5.23;1.87;;;;;;;21.79;33.44;100664.13;4245453;28;21377;-67
2023/05/30 09:08:45;;;;;;;7.97;2.17;;;;;;;21.28;33.03;100660.16;4257342;28;20248;-68
2023/05/30 09:11:14;;;;;;;7.03;1.83;;;;;;;20.81;33.80;100658.25;4245679;28;21134;-67
2023/05/30 09:13:41;;;;;;;8.67;1.90;;;;;;;21.18;33.51;100663.34;4255653;28;21843;-66
2023/05/30 09:16:08;;;;;;;4.17;1.67;;;;;;;20.77;34.18;100665.22;4266110;28;20237;-68
2023/05/30 09:18:35;;;;;;;13.83;2.20;;;;;;;20.74;33.31;100672.00;4245754;28;20235;-66
2023/05/30 09:21:01;;;;;;;7.87;1.90;;;;;;;20.74;33.65;100657.38;4245647;28;20313;-68
2023/05/30 09:23:29;;;;;;;6.70;1.70;;;;;;;20.94;34.40;100675.84;4251343;28;20310;-67
2023/05/30 09:25:59;;;;;;;7.47;1.70;;;;;;;20.65;34.54;100669.63;4244797;28;20345;-68
2023/05/30 09:28:27;;;;;;;8.93;2.07;;;;;;;20.88;33.95;100664.59;4248598;28;20327;-70
2023/05/30 09:31:01;;;;;;;7.80;2.00;;;;;;;20.62;34.42;100667.28;4242754;28;20235;-68
2023/05/30 09:33:54;;;;;;;13.90;1.87;;;;;;;20.82;34.01;100659.94;4248508;28;20245;-72
2023/05/30 09:36:23;;;;;;;7.80;2.13;;;;;;;20.99;35.51;100673.28;4252028;28;20237;-69
2023/05/30 09:38:54;;;;;;;7.37;1.83;;;;;;;20.95;34.91;100672.88;4256759;28;20869;-72
2023/05/30 09:41:22;;;;;;;6.60;1.90;;;;;;;20.98;33.48;100672.47;4240788;28;20379;-70
2023/05/30 09:43:53;;;;;;;5.70;1.60;;;;;;;20.84;33.92;100660.59;4240711;28;20666;-69
2023/05/30 09:46:24;;;;;;;7.30;2.13;;;;;;;21.00;34.26;100672.25;4241989;28;26329;-71
2023/05/30 09:48:52;;;;;;;8.90;2.03;;;;;;;21.54;34.24;100664.78;4247676;28;20303;-70
2023/05/30 09:51:20;;;;;;;6.20;1.87;;;;;;;21.37;33.44;100664.41;4231434;28;20685;-69
2023/05/30 09:54:16;;;;;;;9.07;1.80;;;;;;;21.18;34.17;100672.47;4227257;28;20236;-72
2023/05/30 09:56:43;;;;;;;9.03;2.07;;;;;;;20.82;33.84;100683.88;4273329;28;20367;-69
2023/05/30 09:59:11;;;;;;;13.77;1.90;;;;;;;20.66;33.88;100668.56;4233148;28;24220;-71
2023/05/30 10:01:40;;;;;;;6.40;1.60;;;;;;;20.82;35.78;100681.13;4221442;28;22273;-45
2023/05/30 10:04:15;;;;;;;6.00;1.77;;;;;;;20.74;34.58;100669.25;4247335;28;20303;-67
2023/05/30 10:06:44;;;;;;;6.37;1.67;;;;;;;20.75;34.89;100672.84;4232010;28;20312;-68
2023/05/30 10:09:11;;;;;;;6.30;1.43;;;;;;;20.68;34.73;100674.69;4233406;28;20421;-69
2023/05/30 10:11:39;;;;;;;8.60;1.90;;;;;;;20.81;34.28;100673.91;4241135;28;20239;-67
2023/05/30 10:14:06;;;;;;;5.93;1.83;;;;;;;20.72;33.92;100674.09;4251138;28;20240;-67
2023/05/30 10:16:35;;;;;;;13.30;1.90;;;;;;;20.45;34.50;100677.84;4242458;28;20302;-68
2023/05/30 10:19:04;;;;;;;5.17;1.70;;;;;;;20.47;33.35;100670.22;4229151;28;20333;-67
2023/05/30 10:21:34;;;;;;;3.67;1.60;;;;;;;20.72;33.38;100674.09;4249799;28;20284;-68
2023/05/30 10:24:01;;;;;;;6.73;1.90;;;;;;;20.41;32.85;100675.47;4246483;28;20246;-69
2023/05/30 10:26:32;;;;;;;10.87;2.03;;;;;;;20.31;33.29;100665.94;4223537;28;20235;-69
2023/05/30 10:29:01;;;;;;;8.67;1.60;;;;;;;20.43;32.96;100664.28;4236718;28;20231;-69
2023/05/30 10:31:28;;;;;;;5.70;1.90;;;;;;;20.70;32.81;100670.69;4217049;28;20231;-71
2023/05/30 10:33:56;;;;;;;6.60;1.90;;;;;;;21.27;33.57;100674.97;4231965;28;20236;-69
2023/05/30 10:39:33;;;;;;;4.13;1.67;;;;;;;20.73;32.14;100672.22;4265520;27;20864;-73
2023/05/30 10:42:16;;;;;;;9.07;1.60;;;;;;;20.59;31.62;100671.31;4228234;28;20250;-73
2023/05/30 10:45:07;;;;;;;3.77;1.40;;;;;;;21.13;31.53;100674.16;4220001;28;20242;-68
2023/05/30 10:47:57;;;;;;;4.03;1.50;;;;;;;20.87;30.30;100670.31;4227465;28;20291;-68
2023/05/30 10:50:30;;;;;;;5.10;1.70;;;;;;;20.94;31.09;100670.34;4222121;28;20231;-69
2023/05/30 10:52:57;;;;;;;6.63;1.60;;;;;;;20.90;29.73;100676.25;4232606;28;20227;-68
2023/05/30 10:55:26;;;;;;;7.17;2.40;;;;;;;20.57;30.57;100671.53;4227976;28;20232;-70
2023/05/30 10:57:53;;;;;;;7.10;2.77;;;;;;;20.78;30.43;100666.94;4232674;28;20257;-71
2023/05/30 11:00:23;;;;;;;4.87;2.07;;;;;;;20.50;29.86;100664.28;4247824;28;23093;-74
2023/05/30 11:02:52;;;;;;;6.10;1.67;;;;;;;20.50;30.58;100678.91;4237433;28;20319;-76
2023/05/30 11:05:26;;;;;;;4.03;1.60;;;;;;;20.85;29.50;100670.53;4217082;28;20242;-74
2023/05/30 11:07:53;;;;;;;6.30;1.67;;;;;;;21.22;28.88;100670.13;4222758;28;21728;-72
2023/05/30 11:10:27;;;;;;;4.67;1.53;;;;;;;20.68;27.02;100672.81;4237299;28;20306;-71
2023/05/30 11:13:08;;;;;;;6.83;1.90;;;;;;;21.17;27.07;100668.03;4204237;28;20281;-71
2023/05/30 11:15:34;;;;;;;6.60;1.63;;;;;;;21.15;27.08;100631.59;4211763;28;20243;-71
2023/05/30 11:18:01;;;;;;;5.53;1.70;;;;;;;21.31;28.05;100657.81;4241473;28;22310;-70
2023/05/30 11:20:28;;;;;;;4.70;1.40;;;;;;;21.69;28.45;100661.84;4219516;28;20637;-73
2023/05/30 11:23:00;;;;;;;6.40;1.40;;;;;;;21.88;28.96;100661.97;4227014;28;22066;-71
2023/05/30 11:25:29;;;;;;;11.03;1.67;;;;;;;21.33;28.01;100663.13;4232363;28;20715;-74
2023/05/30 11:28:04;;;;;;;4.53;1.47;;;;;;;21.44;27.17;100667.97;4217107;28;20236;-73
2023/05/30 11:30:37;;;;;;;8.00;1.50;;;;;;;21.17;26.43;100665.25;4228469;28;20554;-72
2023/05/30 11:33:09;;;;;;;3.17;1.70;;;;;;;21.15;27.08;100658.28;4230881;28;20232;-71
2023/05/30 11:35:37;;;;;;;6.37;1.53;;;;;;;21.38;26.97;100666.94;4217698;28;22926;-69
2023/05/30 11:38:04;;;;;;;7.23;1.97;;;;;;;21.55;28.09;100669.22;4223737;28;20306;-68